TimePST,TemperatureF,Dew PointF,Humidity,Sea Level PressureIn,VisibilityMPH,Wind Direction,Wind SpeedMPH,Gust SpeedMPH,PrecipitationIn,Events,Conditions,WindDirDegrees,DateUTC
12:54 AM,51.1,48.0,89,29.81,8.0,ENE,3.5,-,0.00,,Partly Cloudy,60,2011-11-12 08:54:00
1:20 AM,48.2,46.4,93,29.84,6.0,North,3.5,-,N/A,,Mostly Cloudy,350,2011-11-12 09:20:00
1:28 AM,50.0,48.2,94,29.84,6.0,NE,3.5,-,N/A,,Scattered Clouds,50,2011-11-12 09:28:00
1:54 AM,50.0,48.0,93,29.81,9.0,NNE,5.8,-,N/A,,Mostly Cloudy,20,2011-11-12 09:54:00
2:01 AM,50.0,46.4,87,29.83,9.0,NE,4.6,-,N/A,,Mostly Cloudy,50,2011-11-12 10:01:00
2:15 AM,51.8,48.2,88,29.83,10.0,NE,5.8,-,N/A,,Mostly Cloudy,50,2011-11-12 10:15:00
2:54 AM,52.0,48.9,89,29.81,10.0,NNE,6.9,-,N/A,,Overcast,20,2011-11-12 10:54:00
3:54 AM,52.0,48.0,86,29.81,10.0,North,6.9,-,N/A,,Overcast,10,2011-11-12 11:54:00
5:54 AM,52.0,48.0,86,29.83,10.0,North,6.9,-,N/A,,Overcast,10,2011-11-12 13:54:00
7:54 AM,53.1,48.9,86,29.86,9.0,North,4.6,-,N/A,,Mostly Cloudy,10,2011-11-12 15:54:00
8:54 AM,55.0,48.9,80,29.88,10.0,North,8.1,-,N/A,,Overcast,360,2011-11-12 16:54:00
9:54 AM,57.9,48.9,72,29.89,10.0,NNW,5.8,-,N/A,,Clear,340,2011-11-12 17:54:00
10:54 AM,60.1,48.0,64,29.89,10.0,NNW,3.5,-,N/A,,Scattered Clouds,330,2011-11-12 18:54:00
11:54 AM,62.1,46.9,58,29.88,10.0,North,3.5,-,N/A,,Scattered Clouds,10,2011-11-12 19:54:00
12:54 PM,63.0,48.0,58,29.86,10.0,SSW,6.9,-,N/A,,Mostly Cloudy,210,2011-11-12 20:54:00
1:54 PM,62.1,48.0,60,29.85,10.0,SSW,8.1,-,N/A,,Overcast,210,2011-11-12 21:54:00
2:54 PM,63.0,48.0,58,29.86,10.0,SSW,4.6,-,N/A,,Mostly Cloudy,200,2011-11-12 22:54:00
3:54 PM,61.0,48.9,64,29.87,10.0,SW,3.5,-,N/A,,Scattered Clouds,230,2011-11-12 23:54:00
4:54 PM,57.0,48.9,74,29.88,10.0,Calm,Calm,-,N/A,,Scattered Clouds,0,2011-11-13 00:54:00
5:54 PM,50.0,46.0,86,29.88,10.0,Calm,Calm,-,N/A,,Clear,0,2011-11-13 01:54:00
6:54 PM,46.9,43.0,86,29.88,10.0,Calm,Calm,-,N/A,,Clear,0,2011-11-13 02:54:00
7:54 PM,46.0,43.0,89,29.89,10.0,ESE,3.5,-,N/A,,Clear,110,2011-11-13 03:54:00
8:54 PM,46.0,44.1,93,29.90,10.0,Calm,Calm,-,N/A,,Clear,0,2011-11-13 04:54:00
9:54 PM,45.0,43.0,93,29.92,8.0,Calm,Calm,-,N/A,,Clear,0,2011-11-13 05:54:00
10:54 PM,46.0,44.1,93,29.93,10.0,Calm,Calm,-,N/A,,Clear,0,2011-11-13 06:54:00